createdAt,value
2023-03-30T00:01:17.167Z,82.86
2023-03-30T00:03:46.307Z,82.55
2023-03-30T00:06:21.107Z,82.67
2023-03-30T00:08:49.093Z,82.30
2023-03-30T00:11:17.346Z,82.39
2023-03-30T00:13:45.332Z,82.35
2023-03-30T00:16:16.001Z,82.35
2023-03-30T00:18:45.016Z,82.40
2023-03-30T00:21:12.861Z,82.59
2023-03-30T00:23:40.646Z,82.61
2023-03-30T00:26:08.711Z,82.16
2023-03-30T00:28:36.362Z,81.98
2023-03-30T00:31:04.118Z,82.38
2023-03-30T00:33:44.920Z,82.21
2023-03-30T00:36:13.933Z,82.34
2023-03-30T00:38:41.666Z,82.51
2023-03-30T00:41:09.665Z,82.60
2023-03-30T00:43:55.711Z,82.96
2023-03-30T00:46:25.009Z,82.49
2023-03-30T00:48:57.700Z,82.28
2023-03-30T00:51:26.403Z,82.01
2023-03-30T00:53:57.004Z,81.42
2023-03-30T00:56:28.364Z,81.44
2023-03-30T00:58:56.173Z,81.07
2023-03-30T01:01:28.695Z,81.16
2023-03-30T01:03:59.376Z,81.25
2023-03-30T01:06:29.942Z,81.22
2023-03-30T01:08:58.912Z,81.13
2023-03-30T01:11:27.729Z,81.04
2023-03-30T01:13:58.380Z,81.05
2023-03-30T01:16:30.223Z,80.73
2023-03-30T01:19:07.703Z,80.29
2023-03-30T01:22:00.250Z,80.70
2023-03-30T01:25:03.598Z,80.86
2023-03-30T01:28:11.138Z,81.15
2023-03-30T01:30:55.114Z,81.41
2023-03-30T01:33:53.288Z,81.52
2023-03-30T01:36:45.641Z,81.53
2023-03-30T01:39:37.768Z,81.74
2023-03-30T01:42:10.446Z,81.96
2023-03-30T01:44:44.834Z,81.56
2023-03-30T01:47:17.609Z,81.33
2023-03-30T01:49:47.221Z,81.22
2023-03-30T01:52:17.188Z,80.78
2023-03-30T01:54:48.610Z,80.04
2023-03-30T01:57:19.311Z,79.64
2023-03-30T01:59:52.541Z,79.77
2023-03-30T02:02:22.779Z,79.85
2023-03-30T02:04:53.848Z,80.04
2023-03-30T02:07:24.093Z,79.76
2023-03-30T02:09:55.369Z,80.03
2023-03-30T02:12:23.736Z,79.90
2023-03-30T02:14:52.432Z,79.70
2023-03-30T02:17:24.520Z,80.21
2023-03-30T02:19:54.566Z,79.44
2023-03-30T02:22:22.086Z,78.86
2023-03-30T02:24:52.254Z,78.54
2023-03-30T02:27:22.669Z,78.21
2023-03-30T02:29:50.522Z,78.27
2023-03-30T02:32:20.708Z,78.27
2023-03-30T02:35:03.860Z,78.04
2023-03-30T02:37:44.937Z,78.37
2023-03-30T02:40:23.867Z,78.67
2023-03-30T02:43:03.495Z,78.80
2023-03-30T02:45:41.960Z,78.06
2023-03-30T02:48:18.790Z,78.39
2023-03-30T02:50:49.967Z,78.54
2023-03-30T02:53:43.244Z,78.91
2023-03-30T02:56:19.291Z,78.30
2023-03-30T02:58:57.907Z,78.38
2023-03-30T03:01:28.792Z,78.25
2023-03-30T03:04:11.411Z,78.67
2023-03-30T03:06:56.628Z,78.84
2023-03-30T03:09:26.056Z,79.14
2023-03-30T03:11:53.664Z,79.47
2023-03-30T03:14:22.935Z,79.26
2023-03-30T03:16:50.570Z,79.77
2023-03-30T03:19:19.372Z,79.66
2023-03-30T03:21:49.949Z,80.05
2023-03-30T03:24:18.979Z,80.67
2023-03-30T03:27:21.445Z,80.70
2023-03-30T03:30:07.840Z,80.85
2023-03-30T03:32:42.921Z,81.24
2023-03-30T03:35:10.934Z,81.16
2023-03-30T03:37:38.904Z,81.62
2023-03-30T03:40:09.208Z,81.66
2023-03-30T03:42:38.938Z,81.37
2023-03-30T03:45:13.315Z,81.35
2023-03-30T03:47:59.277Z,81.74
2023-03-30T03:50:39.110Z,81.58
2023-03-30T03:53:06.850Z,81.24
2023-03-30T03:55:35.303Z,81.28
2023-03-30T03:58:03.232Z,81.53
2023-03-30T04:00:35.499Z,81.88
2023-03-30T04:03:04.971Z,81.91
2023-03-30T04:05:32.860Z,81.72
2023-03-30T04:08:01.307Z,81.55
2023-03-30T04:10:29.270Z,81.54
2023-03-30T04:13:02.266Z,81.47
2023-03-30T04:15:49.900Z,81.34
2023-03-30T04:18:36.590Z,80.95
2023-03-30T04:21:23.617Z,80.75
2023-03-30T04:24:03.427Z,80.87
2023-03-30T04:27:09.791Z,80.20
2023-03-30T04:29:58.557Z,80.56
2023-03-30T04:32:39.629Z,80.54
2023-03-30T04:35:25.768Z,79.96
2023-03-30T04:38:13.902Z,79.40
2023-03-30T04:41:05.613Z,79.64
2023-03-30T04:43:54.032Z,79.84
2023-03-30T04:46:46.917Z,80.20
2023-03-30T04:49:45.980Z,80.17
2023-03-30T04:52:31.895Z,79.76
2023-03-30T04:55:20.512Z,79.22
2023-03-30T04:58:06.260Z,79.35
2023-03-30T05:00:54.005Z,79.71
2023-03-30T05:03:30.111Z,79.54
2023-03-30T05:06:16.525Z,79.64
2023-03-30T05:08:58.252Z,80.04
2023-03-30T05:11:40.351Z,79.93
2023-03-30T05:14:18.844Z,79.62
2023-03-30T05:16:58.639Z,79.26
2023-03-30T05:19:34.792Z,78.73
2023-03-30T05:22:21.192Z,78.46
2023-03-30T05:24:57.232Z,78.09
2023-03-30T05:27:54.082Z,77.66
2023-03-30T05:30:47.654Z,77.61
2023-03-30T05:33:33.833Z,77.61
2023-03-30T05:36:24.304Z,77.45
2023-03-30T05:39:19.147Z,77.02
2023-03-30T05:42:05.607Z,76.49
2023-03-30T05:44:40.353Z,76.45
2023-03-30T05:47:26.590Z,76.99
2023-03-30T05:50:11.408Z,77.12
2023-03-30T05:52:54.510Z,77.02
2023-03-30T05:55:47.120Z,76.96
2023-03-30T05:58:27.478Z,76.43
2023-03-30T06:01:26.095Z,76.10
2023-03-30T06:03:54.251Z,75.94
2023-03-30T06:06:22.281Z,75.69
2023-03-30T06:08:52.278Z,75.45
2023-03-30T06:11:24.930Z,75.20
2023-03-30T06:14:01.935Z,75.08
2023-03-30T06:16:30.121Z,75.14
2023-03-30T06:18:58.095Z,75.22
2023-03-30T06:21:25.704Z,75.11
2023-03-30T06:24:16.079Z,75.24
2023-03-30T06:26:44.962Z,75.32
2023-03-30T06:29:12.571Z,74.87
2023-03-30T06:31:42.234Z,74.72
2023-03-30T06:34:29.876Z,74.65
2023-03-30T06:36:58.273Z,74.57
2023-03-30T06:39:27.257Z,74.00
2023-03-30T06:41:56.140Z,73.81
2023-03-30T06:44:41.904Z,73.21
2023-03-30T06:47:14.296Z,72.99
2023-03-30T06:49:41.969Z,73.06
2023-03-30T06:52:31.676Z,72.99
2023-03-30T06:54:59.420Z,73.12
2023-03-30T06:57:28.443Z,73.28
2023-03-30T06:59:56.108Z,73.32
2023-03-30T07:02:23.728Z,73.89
2023-03-30T07:05:17.241Z,74.28
2023-03-30T07:07:55.289Z,74.39
2023-03-30T07:10:23.505Z,74.74
2023-03-30T07:12:53.880Z,74.61
2023-03-30T07:15:24.371Z,74.64
2023-03-30T07:17:52.149Z,74.71
2023-03-30T07:20:20.925Z,74.86
2023-03-30T07:23:08.628Z,74.49
2023-03-30T07:25:36.644Z,74.61
2023-03-30T07:28:14.399Z,75.04
2023-03-30T07:30:42.603Z,75.15
2023-03-30T07:33:11.618Z,75.48
2023-03-30T07:35:44.958Z,75.47
2023-03-30T07:38:14.162Z,75.82
2023-03-30T07:40:46.475Z,77.21
2023-03-30T07:43:17.226Z,77.34
2023-03-30T07:45:45.440Z,77.73
2023-03-30T07:48:19.084Z,78.37
2023-03-30T07:50:47.611Z,78.66
2023-03-30T07:53:15.170Z,79.25
2023-03-30T07:55:45.205Z,79.25
2023-03-30T07:58:23.542Z,79.77
2023-03-30T08:00:54.405Z,80.30
2023-03-30T08:03:28.553Z,80.85
2023-03-30T08:05:59.341Z,81.08
2023-03-30T08:08:29.296Z,81.65
2023-03-30T08:10:57.075Z,82.04
2023-03-30T08:13:27.195Z,82.07
2023-03-30T08:15:55.948Z,82.85
2023-03-30T08:18:23.655Z,83.56
2023-03-30T08:20:52.549Z,83.68
2023-03-30T08:23:20.959Z,84.72
2023-03-30T08:25:52.536Z,85.30
2023-03-30T08:28:21.414Z,85.73
2023-03-30T08:30:50.360Z,86.63
2023-03-30T08:33:18.164Z,87.56
2023-03-30T08:35:46.652Z,88.25
2023-03-30T08:38:17.404Z,90.35
2023-03-30T08:40:46.517Z,91.47
2023-03-30T08:43:23.456Z,91.18
2023-03-30T08:46:00.352Z,92.17
2023-03-30T08:48:29.268Z,92.71
2023-03-30T08:51:03.556Z,93.32
2023-03-30T08:53:33.872Z,94.11
2023-03-30T08:56:05.997Z,94.22
2023-03-30T08:58:40.386Z,95.23
2023-03-30T09:01:17.091Z,96.27
2023-03-30T09:03:55.858Z,96.86
2023-03-30T09:06:28.434Z,97.59
2023-03-30T09:08:56.353Z,97.74
2023-03-30T09:11:32.327Z,98.46
2023-03-30T09:14:03.016Z,98.87
2023-03-30T09:16:38.308Z,98.41
2023-03-30T09:19:09.707Z,98.49
2023-03-30T09:21:37.336Z,98.71
2023-03-30T09:24:13.240Z,98.92
2023-03-30T09:26:46.626Z,97.95
2023-03-30T09:29:19.916Z,97.35
2023-03-30T09:31:53.066Z,97.32
2023-03-30T09:34:27.313Z,96.35
2023-03-30T09:36:58.509Z,96.04
2023-03-30T09:39:28.109Z,95.50
2023-03-30T09:42:06.068Z,96.64
2023-03-30T09:44:37.209Z,96.35
2023-03-30T09:47:22.000Z,96.67
2023-03-30T09:49:49.783Z,96.59
2023-03-30T09:52:21.998Z,96.07
2023-03-30T09:54:49.510Z,96.11
2023-03-30T09:57:25.787Z,95.88
2023-03-30T09:59:55.751Z,95.35
2023-03-30T10:02:27.908Z,95.65
2023-03-30T10:05:02.360Z,95.24
2023-03-30T10:07:32.602Z,94.71
2023-03-30T10:10:01.779Z,95.06
2023-03-30T10:12:30.927Z,94.96
2023-03-30T10:15:02.121Z,94.67
2023-03-30T10:17:31.282Z,94.02
2023-03-30T10:20:24.324Z,94.52
2023-03-30T10:22:53.823Z,93.87
2023-03-30T10:25:23.958Z,94.95
2023-03-30T10:27:53.484Z,95.29
2023-03-30T10:30:25.818Z,95.23
2023-03-30T10:32:57.481Z,95.16
2023-03-30T10:35:26.800Z,94.91
2023-03-30T10:37:56.396Z,94.68
2023-03-30T10:40:27.528Z,94.38
2023-03-30T10:42:56.693Z,93.91
2023-03-30T10:45:29.775Z,94.00
2023-03-30T10:48:10.706Z,93.63
2023-03-30T10:50:46.268Z,93.67
2023-03-30T10:53:23.731Z,93.77
2023-03-30T10:55:54.862Z,93.35
2023-03-30T10:58:32.280Z,93.30
2023-03-30T11:01:07.215Z,93.51
2023-03-30T11:03:40.224Z,93.12
2023-03-30T11:06:12.416Z,92.56
2023-03-30T11:08:42.626Z,91.57
2023-03-30T11:11:13.919Z,91.14
2023-03-30T11:13:46.098Z,90.08
2023-03-30T11:16:23.033Z,89.80
2023-03-30T11:18:55.835Z,89.43
2023-03-30T11:21:29.827Z,87.54
2023-03-30T11:23:59.822Z,86.62
2023-03-30T11:26:33.558Z,86.44
2023-03-30T11:29:07.231Z,86.76
2023-03-30T11:31:46.021Z,86.49
2023-03-30T11:34:21.726Z,84.58
2023-03-30T11:36:55.670Z,84.09
2023-03-30T11:39:32.091Z,82.06
2023-03-30T11:42:05.243Z,80.68
2023-03-30T11:44:33.244Z,80.56
2023-03-30T11:47:10.506Z,80.55
2023-03-30T11:49:47.705Z,79.44
2023-03-30T11:52:26.353Z,79.66
2023-03-30T11:55:20.885Z,79.22
2023-03-30T11:57:53.230Z,79.65
2023-03-30T12:00:29.144Z,79.52
2023-03-30T12:03:06.602Z,79.56
2023-03-30T12:05:38.896Z,80.15
2023-03-30T12:08:19.694Z,80.06
2023-03-30T12:10:50.647Z,80.51
2023-03-30T12:13:19.853Z,81.03
2023-03-30T12:15:49.980Z,81.02
2023-03-30T12:18:27.634Z,80.86
2023-03-30T12:21:02.322Z,81.01
2023-03-30T12:23:37.717Z,81.14
2023-03-30T12:26:17.336Z,81.57
2023-03-30T12:29:08.336Z,81.54
2023-03-30T12:32:08.379Z,81.33
2023-03-30T12:34:37.357Z,82.75
2023-03-30T12:37:10.044Z,83.04
2023-03-30T12:39:44.767Z,83.47
2023-03-30T12:42:26.346Z,83.47
2023-03-30T12:45:22.754Z,83.90
2023-03-30T12:48:18.856Z,82.75
2023-03-30T12:50:52.404Z,82.57
2023-03-30T12:53:39.288Z,81.96
2023-03-30T12:56:08.850Z,81.74
2023-03-30T12:59:02.651Z,80.06
2023-03-30T13:01:45.393Z,80.81
2023-03-30T13:04:16.159Z,80.38
2023-03-30T13:06:49.453Z,78.64
2023-03-30T13:09:35.948Z,76.98
2023-03-30T13:12:29.203Z,75.27
2023-03-30T13:15:03.345Z,75.59
2023-03-30T13:17:50.865Z,74.37
2023-03-30T13:23:01.175Z,75.49
2023-03-30T13:25:40.826Z,73.33
2023-03-30T13:28:37.911Z,71.54
2023-03-30T13:31:11.236Z,71.36
2023-03-30T13:33:40.727Z,70.76
2023-03-30T13:36:12.139Z,71.30
2023-03-30T13:39:00.287Z,70.83
2023-03-30T13:41:36.272Z,71.40
2023-03-30T13:44:20.849Z,71.66
2023-03-30T13:46:52.150Z,71.34
2023-03-30T13:49:36.932Z,71.46
2023-03-30T13:52:06.831Z,71.12
2023-03-30T13:54:35.817Z,71.83
2023-03-30T13:57:08.564Z,71.11
2023-03-30T13:59:38.683Z,70.15
2023-03-30T14:02:06.865Z,69.66
2023-03-30T14:04:37.139Z,69.02
2023-03-30T14:07:19.528Z,68.71
2023-03-30T14:10:06.311Z,68.79
2023-03-30T14:12:38.212Z,69.23
2023-03-30T14:15:17.019Z,68.25
2023-03-30T14:17:48.702Z,68.22
2023-03-30T14:20:30.072Z,68.43
2023-03-30T14:22:58.540Z,67.43
2023-03-30T14:25:28.542Z,67.46
2023-03-30T14:27:58.985Z,67.79
2023-03-30T14:30:29.456Z,67.47
2023-03-30T14:33:07.960Z,68.08
2023-03-30T14:35:35.825Z,67.18
2023-03-30T14:38:14.196Z,67.59
2023-03-30T14:40:44.445Z,65.83
2023-03-30T14:43:17.912Z,65.79
2023-03-30T14:45:45.612Z,64.97
2023-03-30T14:48:24.078Z,65.15
2023-03-30T14:50:51.506Z,65.35
2023-03-30T14:53:23.457Z,64.60
2023-03-30T14:55:51.547Z,65.06
2023-03-30T14:58:21.129Z,65.35
2023-03-30T15:00:48.834Z,65.24
2023-03-30T15:03:26.659Z,64.75
2023-03-30T15:06:01.381Z,61.91
2023-03-30T15:08:32.246Z,62.16
2023-03-30T15:11:02.517Z,63.69
2023-03-30T15:13:36.087Z,68.51
2023-03-30T15:16:05.410Z,72.27
2023-03-30T15:18:34.172Z,73.30
2023-03-30T15:21:01.763Z,75.72
2023-03-30T15:23:32.735Z,77.38
2023-03-30T15:26:02.252Z,78.23
2023-03-30T15:28:33.469Z,80.47
2023-03-30T15:31:01.030Z,83.32
2023-03-30T15:33:32.366Z,84.09
2023-03-30T15:36:05.628Z,84.30
2023-03-30T15:38:36.153Z,84.65
2023-03-30T15:41:04.394Z,86.45
2023-03-30T15:43:38.357Z,85.42
2023-03-30T15:46:07.332Z,85.96
2023-03-30T15:48:40.367Z,86.04
2023-03-30T15:51:12.589Z,87.84
2023-03-30T15:53:42.581Z,89.15
2023-03-30T15:56:14.484Z,89.37
2023-03-30T15:58:43.593Z,91.29
2023-03-30T16:01:14.533Z,92.17
2023-03-30T16:03:50.789Z,92.23
2023-03-30T16:06:18.662Z,92.70
2023-03-30T16:08:46.263Z,92.94
2023-03-30T16:11:15.236Z,92.84
2023-03-30T16:13:45.374Z,91.83
2023-03-30T16:16:13.935Z,91.86
2023-03-30T16:18:42.776Z,92.01
2023-03-30T16:21:12.271Z,92.18
2023-03-30T16:23:40.096Z,91.90
2023-03-30T16:26:09.612Z,91.90
2023-03-30T16:28:40.714Z,91.73
2023-03-30T16:31:15.865Z,91.13
2023-03-30T16:33:43.376Z,91.64
2023-03-30T16:36:14.170Z,90.65
2023-03-30T16:38:41.680Z,91.42
2023-03-30T16:41:11.699Z,92.15
2023-03-30T16:43:39.207Z,91.67
2023-03-30T16:46:07.211Z,91.47
2023-03-30T16:48:36.476Z,91.26
2023-03-30T16:51:05.024Z,89.88
2023-03-30T16:53:33.224Z,89.03
2023-03-30T16:56:01.756Z,89.11
2023-03-30T16:58:29.462Z,89.19
2023-03-30T17:01:03.221Z,89.33
2023-03-30T17:03:31.959Z,89.07
2023-03-30T17:06:00.813Z,88.88
2023-03-30T17:08:29.486Z,88.44
2023-03-30T17:10:59.644Z,88.45
2023-03-30T17:13:27.441Z,89.49
2023-03-30T17:15:54.974Z,89.45
2023-03-30T17:18:23.837Z,88.98
2023-03-30T17:20:52.235Z,89.07
2023-03-30T17:23:21.465Z,88.94
2023-03-30T17:25:49.589Z,89.23
2023-03-30T17:28:22.127Z,89.56
2023-03-30T17:30:50.411Z,89.59
2023-03-30T17:33:18.314Z,89.91
2023-03-30T17:35:47.540Z,90.01
2023-03-30T17:38:16.025Z,89.75
2023-03-30T17:40:46.052Z,90.23
2023-03-30T17:43:14.486Z,89.81
2023-03-30T17:45:43.552Z,89.88
2023-03-30T17:48:13.717Z,89.80
2023-03-30T17:50:43.544Z,89.41
2023-03-30T17:53:13.222Z,89.59
2023-03-30T17:55:41.248Z,89.68
2023-03-30T17:58:18.115Z,89.88
2023-03-30T18:00:47.240Z,90.38
2023-03-30T18:03:15.194Z,89.42
2023-03-30T18:05:44.220Z,89.52
2023-03-30T18:08:17.154Z,89.24
2023-03-30T18:10:47.859Z,89.16
2023-03-30T18:13:17.979Z,89.91
2023-03-30T18:15:49.111Z,89.69
2023-03-30T18:18:22.478Z,89.91
2023-03-30T18:20:51.264Z,89.67
2023-03-30T18:23:19.233Z,89.39
2023-03-30T18:25:47.182Z,89.58
2023-03-30T18:28:17.003Z,89.35
2023-03-30T18:30:46.162Z,89.13
2023-03-30T18:33:16.023Z,89.17
2023-03-30T18:35:44.411Z,89.20
2023-03-30T18:38:15.373Z,88.73
2023-03-30T18:40:45.235Z,88.92
2023-03-30T18:43:13.698Z,88.47
2023-03-30T18:45:42.348Z,89.06
2023-03-30T18:48:14.510Z,89.70
2023-03-30T18:50:43.483Z,90.17
2023-03-30T18:53:13.393Z,89.57
2023-03-30T18:55:42.372Z,89.83
2023-03-30T18:58:14.635Z,89.73
2023-03-30T19:00:42.273Z,90.22
2023-03-30T19:03:13.485Z,90.36
2023-03-30T19:05:41.537Z,90.45
2023-03-30T19:08:11.576Z,90.74
2023-03-30T19:10:40.335Z,90.79
2023-03-30T19:13:08.354Z,90.80
2023-03-30T19:15:36.838Z,91.45
2023-03-30T19:18:06.032Z,91.30
2023-03-30T19:20:37.754Z,91.14
2023-03-30T19:23:05.354Z,91.24
2023-03-30T19:25:33.637Z,91.11
2023-03-30T19:28:04.261Z,91.41
2023-03-30T19:30:34.811Z,91.68
2023-03-30T19:33:05.750Z,91.08
2023-03-30T19:35:35.144Z,91.30
2023-03-30T19:38:02.913Z,91.61
2023-03-30T19:40:32.225Z,91.56
2023-03-30T19:42:59.735Z,92.07
2023-03-30T19:45:27.241Z,92.17
2023-03-30T19:47:54.782Z,92.31
2023-03-30T19:50:24.872Z,91.83
2023-03-30T19:52:54.907Z,91.95
2023-03-30T19:55:23.033Z,91.66
2023-03-30T19:57:50.561Z,91.90
2023-03-30T20:00:19.655Z,91.70
2023-03-30T20:02:48.354Z,91.88
2023-03-30T20:05:16.778Z,91.94
2023-03-30T20:07:45.398Z,92.07
2023-03-30T20:10:18.768Z,91.91
2023-03-30T20:12:46.698Z,92.42
2023-03-30T20:15:14.784Z,93.19
2023-03-30T20:17:42.615Z,92.73
2023-03-30T20:20:12.568Z,92.74
2023-03-30T20:22:42.612Z,92.95
2023-03-30T20:25:11.845Z,93.21
2023-03-30T20:27:40.990Z,93.47
2023-03-30T20:30:09.664Z,93.21
2023-03-30T20:32:37.196Z,92.38
2023-03-30T20:35:05.241Z,92.67
2023-03-30T20:37:33.109Z,93.18
2023-03-30T20:40:09.744Z,93.15
2023-03-30T20:42:39.813Z,93.03
2023-03-30T20:45:10.056Z,93.17
2023-03-30T20:47:38.200Z,93.05
2023-03-30T20:50:07.528Z,92.99
2023-03-30T20:52:35.073Z,92.79
2023-03-30T20:55:02.616Z,92.67
2023-03-30T20:57:30.314Z,92.69
2023-03-30T20:59:57.844Z,92.68
2023-03-30T21:02:27.386Z,92.92
2023-03-30T21:04:56.643Z,92.95
2023-03-30T21:07:24.739Z,92.93
2023-03-30T21:09:52.338Z,92.76
2023-03-30T21:12:20.479Z,92.79
2023-03-30T21:14:48.103Z,93.23
2023-03-30T21:17:15.597Z,92.43
2023-03-30T21:19:44.426Z,92.56
2023-03-30T21:22:11.997Z,92.99
2023-03-30T21:24:39.485Z,93.19
2023-03-30T21:27:07.055Z,93.31
2023-03-30T21:29:34.570Z,93.04
2023-03-30T21:32:02.105Z,93.16
2023-03-30T21:34:29.842Z,93.12
2023-03-30T21:36:58.882Z,93.12
2023-03-30T21:39:26.499Z,93.23
2023-03-30T21:41:53.990Z,92.59
2023-03-30T21:44:21.508Z,92.24
2023-03-30T21:46:49.042Z,92.26
2023-03-30T21:49:16.618Z,92.16
2023-03-30T21:51:44.139Z,92.17
2023-03-30T21:54:13.976Z,91.87
2023-03-30T21:56:41.721Z,92.00
2023-03-30T21:59:09.640Z,91.58
2023-03-30T22:01:38.735Z,91.92
2023-03-30T22:04:07.292Z,91.32
2023-03-30T22:06:34.947Z,91.39
2023-03-30T22:09:02.502Z,91.53
2023-03-30T22:11:31.342Z,91.87
2023-03-30T22:13:59.127Z,92.05
2023-03-30T22:16:29.088Z,92.20
2023-03-30T22:18:57.204Z,92.08
2023-03-30T22:21:29.074Z,92.14
2023-03-30T22:23:56.660Z,91.95
2023-03-30T22:26:24.304Z,91.92
2023-03-30T22:28:53.144Z,91.61
2023-03-30T22:31:21.032Z,91.57
2023-03-30T22:33:49.037Z,91.16
2023-03-30T22:36:19.101Z,91.46
2023-03-30T22:38:46.807Z,91.24
2023-03-30T22:41:14.746Z,91.19
2023-03-30T22:43:42.421Z,91.48
2023-03-30T22:46:11.836Z,91.70
2023-03-30T22:48:41.404Z,91.56
2023-03-30T22:51:09.641Z,91.33
2023-03-30T22:53:38.501Z,91.50
2023-03-30T22:56:07.640Z,91.47
2023-03-30T22:58:35.973Z,91.30
2023-03-30T23:01:05.978Z,91.90
2023-03-30T23:03:34.917Z,91.33
2023-03-30T23:06:02.946Z,91.28
2023-03-30T23:08:31.133Z,91.37
2023-03-30T23:11:04.789Z,91.40
2023-03-30T23:13:33.426Z,91.33
2023-03-30T23:16:01.518Z,90.54
2023-03-30T23:18:29.312Z,90.23
2023-03-30T23:20:58.153Z,90.15
2023-03-30T23:23:25.722Z,90.00
2023-03-30T23:25:53.339Z,90.12
2023-03-30T23:28:20.886Z,90.19
2023-03-30T23:30:48.444Z,90.56
2023-03-30T23:33:16.418Z,90.69
2023-03-30T23:35:49.041Z,90.42
2023-03-30T23:38:17.972Z,91.04
2023-03-30T23:40:45.544Z,91.06
2023-03-30T23:43:13.228Z,91.38
2023-03-30T23:45:42.739Z,91.51
2023-03-30T23:48:10.531Z,91.75
2023-03-30T23:50:38.054Z,91.69
2023-03-30T23:53:06.956Z,91.76
2023-03-30T23:55:35.812Z,91.85
2023-03-30T23:58:03.368Z,91.86
